createdAt,value
2019-03-15T00:01:38.952Z,7.60
2019-03-15T00:04:07.954Z,7.50
2019-03-15T00:06:36.866Z,7.50
2019-03-15T00:09:08.321Z,7.50
2019-03-15T00:11:37.358Z,7.50
2019-03-15T00:14:06.644Z,7.50
2019-03-15T00:16:35.638Z,7.60
2019-03-15T00:19:04.630Z,7.60
2019-03-15T00:21:33.679Z,7.70
2019-03-15T00:24:02.665Z,7.80
2019-03-15T00:26:31.670Z,7.80
2019-03-15T00:29:00.530Z,7.90
2019-03-15T00:31:29.473Z,7.90
2019-03-15T00:33:58.516Z,7.90
2019-03-15T00:36:27.419Z,7.80
2019-03-15T00:38:56.402Z,7.90
2019-03-15T00:41:25.381Z,8.00
2019-03-15T00:43:54.333Z,8.10
2019-03-15T00:46:23.253Z,8.10
2019-03-15T00:48:52.434Z,8.10
2019-03-15T00:51:21.379Z,8.10
2019-03-15T00:53:50.237Z,8.10
2019-03-15T00:56:19.150Z,8.10
2019-03-15T00:58:48.077Z,8.10
2019-03-15T01:01:16.989Z,8.10
2019-03-15T01:03:46.374Z,8.20
2019-03-15T01:06:15.318Z,8.20
2019-03-15T01:08:44.154Z,8.10
2019-03-15T01:11:12.989Z,8.20
2019-03-15T01:13:42.723Z,8.20
2019-03-15T01:16:11.553Z,8.30
2019-03-15T01:18:40.395Z,8.20
2019-03-15T01:21:09.387Z,8.20
2019-03-15T01:23:38.370Z,8.20
2019-03-15T01:26:07.282Z,8.20
2019-03-15T01:28:36.138Z,8.30
2019-03-15T01:31:05.127Z,8.30
2019-03-15T01:33:34.286Z,8.30
2019-03-15T01:36:03.660Z,8.30
2019-03-15T01:38:32.498Z,8.40
2019-03-15T01:41:01.366Z,8.40
2019-03-15T01:43:30.326Z,8.40
2019-03-15T01:45:59.249Z,8.40
2019-03-15T01:48:28.155Z,8.40
2019-03-15T01:50:57.001Z,8.40
2019-03-15T01:53:25.841Z,8.40
2019-03-15T01:55:54.898Z,8.40
2019-03-15T01:58:23.749Z,8.50
2019-03-15T02:00:52.738Z,8.50
2019-03-15T02:03:21.573Z,8.50
2019-03-15T02:05:50.665Z,8.50
2019-03-15T02:08:20.918Z,8.50
2019-03-15T02:10:49.765Z,8.50
2019-03-15T02:13:18.868Z,8.60
2019-03-15T02:15:47.825Z,8.60
2019-03-15T02:18:16.814Z,8.60
2019-03-15T02:20:45.680Z,8.60
2019-03-15T02:23:14.526Z,8.60
2019-03-15T02:25:43.448Z,8.60
2019-03-15T02:28:12.304Z,8.60
2019-03-15T02:30:41.422Z,8.70
2019-03-15T02:33:10.342Z,8.60
2019-03-15T02:35:39.207Z,8.60
2019-03-15T02:38:08.119Z,8.60
2019-03-15T02:40:38.351Z,8.70
2019-03-15T02:43:07.998Z,8.70
2019-03-15T02:45:36.921Z,8.70
2019-03-15T02:48:05.834Z,8.80
2019-03-15T02:50:34.697Z,8.80
2019-03-15T02:53:03.692Z,8.70
2019-03-15T02:55:32.518Z,8.70
2019-03-15T02:58:02.027Z,8.50
2019-03-15T03:00:31.047Z,8.50
2019-03-15T03:02:59.958Z,8.60
2019-03-15T03:05:31.002Z,8.60
2019-03-15T03:08:00.016Z,8.60
2019-03-15T03:10:29.333Z,8.60
2019-03-15T03:12:58.549Z,8.50
2019-03-15T03:15:27.534Z,8.50
2019-03-15T03:17:56.793Z,8.50
2019-03-15T03:20:25.641Z,8.50
2019-03-15T03:22:54.562Z,8.50
2019-03-15T03:25:23.391Z,8.50
2019-03-15T03:27:52.317Z,8.50
2019-03-15T03:30:21.189Z,8.50
2019-03-15T03:32:50.327Z,8.40
2019-03-15T03:35:19.258Z,8.50
2019-03-15T03:37:48.176Z,8.40
2019-03-15T03:40:20.181Z,8.50
2019-03-15T03:42:47.814Z,8.50
2019-03-15T03:45:17.580Z,8.40
2019-03-15T03:47:46.494Z,8.40
2019-03-15T03:50:15.517Z,8.50
2019-03-15T03:52:44.358Z,8.50
2019-03-15T03:55:13.342Z,8.60
2019-03-15T03:57:42.270Z,8.60
2019-03-15T04:00:11.273Z,8.60
2019-03-15T04:02:40.261Z,8.50
2019-03-15T04:05:09.349Z,8.50
2019-03-15T04:07:38.362Z,8.50
2019-03-15T04:10:07.536Z,8.50
2019-03-15T04:12:36.489Z,8.60
2019-03-15T04:15:06.286Z,8.60
2019-03-15T04:17:35.423Z,8.60
2019-03-15T04:20:04.938Z,8.50
2019-03-15T04:22:33.926Z,8.50
2019-03-15T04:25:02.845Z,8.50
2019-03-15T04:27:32.065Z,8.60
2019-03-15T04:30:01.113Z,8.70
2019-03-15T04:32:30.021Z,8.70
2019-03-15T04:34:58.882Z,8.60
2019-03-15T04:37:27.790Z,8.60
2019-03-15T04:39:56.701Z,8.60
2019-03-15T04:42:25.559Z,8.60
2019-03-15T04:44:54.538Z,8.70
2019-03-15T04:47:23.398Z,8.70
2019-03-15T04:49:52.501Z,8.70
2019-03-15T04:52:21.405Z,8.70
2019-03-15T04:54:50.581Z,8.60
2019-03-15T04:57:19.426Z,8.60
2019-03-15T04:59:48.264Z,8.60
2019-03-15T05:02:17.258Z,8.50
2019-03-15T05:04:46.105Z,8.50
2019-03-15T05:07:15.091Z,8.50
2019-03-15T05:09:43.998Z,8.50
2019-03-15T05:12:12.843Z,8.50
2019-03-15T05:14:41.677Z,8.50
2019-03-15T05:17:10.585Z,8.50
2019-03-15T05:19:39.774Z,8.50
2019-03-15T05:22:08.753Z,8.50
2019-03-15T05:24:37.585Z,8.50
2019-03-15T05:27:06.509Z,8.40
2019-03-15T05:29:35.353Z,8.40
2019-03-15T05:32:04.341Z,8.40
2019-03-15T05:34:33.433Z,8.40
2019-03-15T05:37:02.351Z,8.30
2019-03-15T05:39:31.185Z,8.30
2019-03-15T05:42:00.145Z,8.30
2019-03-15T05:44:29.099Z,8.30
2019-03-15T05:46:58.407Z,8.30
2019-03-15T05:49:27.348Z,8.30
2019-03-15T05:51:56.257Z,8.30
2019-03-15T05:54:25.213Z,8.30
2019-03-15T05:56:54.062Z,8.30
2019-03-15T05:59:22.909Z,8.30
2019-03-15T06:01:51.899Z,8.40
2019-03-15T06:04:20.913Z,8.30
2019-03-15T06:06:49.746Z,8.30
2019-03-15T06:09:18.661Z,8.30
2019-03-15T06:11:47.516Z,8.30
2019-03-15T06:14:16.421Z,8.30
2019-03-15T06:16:45.334Z,8.30
2019-03-15T06:19:14.193Z,8.30
2019-03-15T06:21:43.045Z,8.30
2019-03-15T06:24:11.960Z,8.30
2019-03-15T06:26:40.898Z,8.30
2019-03-15T06:29:09.737Z,8.30
2019-03-15T06:31:39.020Z,8.20
2019-03-15T06:34:08.041Z,8.20
2019-03-15T06:36:37.316Z,8.20
2019-03-15T06:39:08.428Z,8.20
2019-03-15T06:41:37.581Z,8.10
2019-03-15T06:44:06.566Z,8.20
2019-03-15T06:46:35.482Z,8.30
2019-03-15T06:49:04.405Z,8.30
2019-03-15T06:51:33.321Z,8.30
2019-03-15T06:54:11.400Z,8.20
2019-03-15T06:56:32.929Z,8.30
2019-03-15T06:59:01.776Z,8.30
2019-03-15T07:01:31.146Z,8.40
2019-03-15T07:04:00.458Z,8.30
2019-03-15T07:06:29.391Z,8.30
2019-03-15T07:08:58.237Z,8.30
2019-03-15T07:11:27.171Z,8.30
2019-03-15T07:13:56.093Z,8.40
2019-03-15T07:16:25.003Z,8.40
2019-03-15T07:18:53.944Z,8.40
2019-03-15T07:21:22.935Z,8.50
2019-03-15T07:23:51.862Z,8.50
2019-03-15T07:26:20.729Z,8.50
2019-03-15T07:28:49.798Z,8.50
2019-03-15T07:31:18.818Z,8.50
2019-03-15T07:33:47.683Z,8.50
2019-03-15T07:36:16.597Z,8.40
2019-03-15T07:38:45.538Z,8.50
2019-03-15T07:41:14.405Z,8.60
2019-03-15T07:43:43.346Z,8.60
2019-03-15T07:46:12.192Z,8.60
2019-03-15T07:48:41.051Z,8.60
2019-03-15T07:51:10.286Z,8.60
2019-03-15T07:53:39.221Z,8.70
2019-03-15T07:56:08.479Z,8.70
2019-03-15T07:58:37.469Z,8.70
2019-03-15T08:01:06.469Z,8.70
2019-03-15T08:03:35.554Z,8.70
2019-03-15T08:06:04.554Z,8.80
2019-03-15T08:08:33.432Z,8.80
2019-03-15T08:11:02.356Z,8.90
2019-03-15T08:13:31.362Z,8.80
2019-03-15T08:16:00.365Z,8.80
2019-03-15T08:18:30.086Z,8.80
2019-03-15T08:20:59.427Z,8.90
2019-03-15T08:23:28.277Z,8.90
2019-03-15T08:25:57.446Z,9.00
2019-03-15T08:28:26.369Z,9.10
2019-03-15T08:30:55.430Z,9.20
2019-03-15T08:33:24.285Z,9.30
2019-03-15T08:35:53.130Z,9.30
2019-03-15T08:38:22.148Z,9.40
2019-03-15T08:40:51.643Z,9.40
2019-03-15T08:43:28.404Z,9.40
2019-03-15T08:45:57.402Z,9.50
2019-03-15T08:48:26.316Z,9.60
2019-03-15T08:50:55.306Z,9.60
2019-03-15T08:53:24.362Z,9.60
2019-03-15T08:55:53.620Z,9.60
2019-03-15T08:58:22.772Z,9.70
2019-03-15T09:00:51.837Z,9.80
2019-03-15T09:03:28.025Z,9.80
2019-03-15T09:05:51.393Z,10.00
2019-03-15T09:08:20.411Z,10.00
2019-03-15T09:10:49.816Z,10.10
2019-03-15T09:13:19.237Z,10.20
2019-03-15T09:15:48.134Z,10.20
2019-03-15T09:18:17.062Z,10.20
2019-03-15T09:20:46.207Z,10.30
2019-03-15T09:23:15.072Z,10.30
2019-03-15T09:25:44.002Z,10.40
2019-03-15T09:28:12.875Z,10.50
2019-03-15T09:30:41.850Z,10.50
2019-03-15T09:33:10.798Z,10.50
2019-03-15T09:35:40.057Z,10.50
2019-03-15T09:38:10.456Z,10.60
2019-03-15T09:40:39.987Z,10.70
2019-03-15T09:43:08.912Z,10.60
2019-03-15T09:45:38.185Z,10.60
2019-03-15T09:48:07.190Z,10.70
2019-03-15T09:50:50.128Z,10.70
2019-03-15T09:53:07.235Z,10.60
2019-03-15T09:55:36.250Z,10.70
2019-03-15T09:58:05.248Z,10.70
2019-03-15T10:00:34.203Z,10.70
2019-03-15T10:03:03.203Z,10.80
2019-03-15T10:05:32.227Z,10.80
2019-03-15T10:08:01.475Z,10.80
2019-03-15T10:10:30.471Z,10.80
2019-03-15T10:13:05.663Z,10.80
2019-03-15T10:15:30.188Z,10.80
2019-03-15T10:17:59.233Z,10.80
2019-03-15T10:20:28.149Z,10.80
2019-03-15T10:23:06.132Z,10.80
2019-03-15T10:25:27.802Z,10.80
2019-03-15T10:27:56.990Z,10.90
2019-03-15T10:30:25.996Z,10.90
2019-03-15T10:32:55.447Z,10.90
2019-03-15T10:35:24.434Z,10.90
2019-03-15T10:37:53.706Z,11.00
2019-03-15T10:40:22.708Z,11.00
2019-03-15T10:42:51.699Z,11.00
2019-03-15T10:45:21.085Z,11.00
2019-03-15T10:47:50.014Z,11.00
2019-03-15T10:50:19.224Z,11.00
2019-03-15T10:52:48.185Z,11.00
2019-03-15T10:55:20.502Z,11.10
2019-03-15T10:57:48.129Z,11.10
2019-03-15T11:00:17.309Z,11.10
2019-03-15T11:02:46.251Z,11.10
2019-03-15T11:05:15.341Z,11.10
2019-03-15T11:07:44.358Z,11.10
2019-03-15T11:10:13.469Z,11.10
2019-03-15T11:12:42.492Z,11.00
2019-03-15T11:15:11.518Z,11.10
2019-03-15T11:17:40.379Z,11.00
2019-03-15T11:20:09.827Z,11.00
2019-03-15T11:22:38.843Z,11.00
2019-03-15T11:25:07.857Z,11.10
2019-03-15T11:27:36.785Z,11.00
2019-03-15T11:30:06.225Z,11.10
2019-03-15T11:32:35.226Z,11.10
2019-03-15T11:35:04.461Z,11.20
2019-03-15T11:37:33.465Z,11.20
2019-03-15T11:40:02.475Z,11.20
2019-03-15T11:42:31.332Z,11.20
2019-03-15T11:45:00.482Z,11.20
2019-03-15T11:47:29.635Z,11.30
2019-03-15T11:49:58.613Z,11.20
2019-03-15T11:52:27.550Z,11.20
2019-03-15T11:54:56.764Z,11.30
2019-03-15T11:57:25.614Z,11.30
2019-03-15T11:59:54.957Z,11.30
2019-03-15T12:02:23.809Z,11.20
2019-03-15T12:04:52.797Z,11.30
2019-03-15T12:07:21.750Z,11.30
2019-03-15T12:09:50.602Z,11.30
2019-03-15T12:12:21.656Z,11.30
2019-03-15T12:14:50.125Z,11.30
2019-03-15T12:17:19.314Z,11.30
2019-03-15T12:19:48.178Z,11.30
2019-03-15T12:22:17.143Z,11.40
2019-03-15T12:24:46.078Z,11.30
2019-03-15T12:27:15.068Z,11.40
2019-03-15T12:29:44.339Z,11.30
2019-03-15T12:32:13.177Z,11.30
2019-03-15T12:34:42.367Z,11.40
2019-03-15T12:37:11.322Z,11.40
2019-03-15T12:39:40.254Z,11.30
2019-03-15T12:42:09.173Z,11.30
2019-03-15T12:44:38.058Z,11.50
2019-03-15T12:47:06.979Z,11.40
2019-03-15T12:49:35.912Z,11.40
2019-03-15T12:52:04.841Z,11.40
2019-03-15T12:54:33.693Z,11.40
2019-03-15T12:57:02.705Z,11.40
2019-03-15T12:59:31.661Z,11.50
2019-03-15T13:02:00.662Z,11.50
2019-03-15T13:04:29.519Z,11.40
2019-03-15T13:06:58.756Z,11.40
2019-03-15T13:09:27.683Z,11.50
2019-03-15T13:11:56.610Z,11.40
2019-03-15T13:14:25.543Z,11.40
2019-03-15T13:16:54.402Z,11.50
2019-03-15T13:19:23.615Z,11.50
2019-03-15T13:21:52.866Z,11.50
2019-03-15T13:24:21.729Z,11.50
2019-03-15T13:26:50.658Z,11.50
2019-03-15T13:29:19.629Z,11.50
2019-03-15T13:31:48.571Z,11.50
2019-03-15T13:34:17.673Z,11.50
2019-03-15T13:36:46.629Z,11.50
2019-03-15T13:39:15.556Z,11.50
2019-03-15T13:41:44.481Z,11.50
2019-03-15T13:44:13.422Z,11.50
2019-03-15T13:46:42.274Z,11.60
2019-03-15T13:49:11.197Z,11.50
2019-03-15T13:51:40.068Z,11.50
2019-03-15T13:54:08.982Z,11.60
2019-03-15T13:56:37.843Z,11.60
2019-03-15T13:59:06.873Z,11.60
2019-03-15T14:01:35.793Z,11.60
2019-03-15T14:04:04.802Z,11.60
2019-03-15T14:06:33.821Z,11.60
2019-03-15T14:09:02.892Z,11.60
2019-03-15T14:11:31.831Z,11.60
2019-03-15T14:14:00.705Z,11.60
2019-03-15T14:16:29.556Z,11.50
2019-03-15T14:18:58.397Z,11.50
2019-03-15T14:21:27.411Z,11.50
2019-03-15T14:23:56.802Z,11.50
2019-03-15T14:26:25.662Z,11.50
2019-03-15T14:28:54.586Z,11.50
2019-03-15T14:31:23.443Z,11.60
2019-03-15T14:33:52.512Z,11.50
2019-03-15T14:36:21.450Z,11.50
2019-03-15T14:38:50.295Z,11.50
2019-03-15T14:41:19.317Z,11.50
2019-03-15T14:43:48.229Z,11.50
2019-03-15T14:46:17.207Z,11.50
2019-03-15T14:48:46.138Z,11.50
2019-03-15T14:51:15.458Z,11.50
2019-03-15T14:53:44.318Z,11.40
2019-03-15T14:56:13.313Z,11.50
2019-03-15T14:58:42.601Z,11.60
2019-03-15T15:01:11.828Z,11.50
2019-03-15T15:03:40.746Z,11.50
2019-03-15T15:06:09.718Z,11.50
2019-03-15T15:08:38.576Z,11.50
2019-03-15T15:11:07.493Z,11.50
2019-03-15T15:13:36.356Z,11.60
2019-03-15T15:16:05.354Z,11.50
2019-03-15T15:18:34.203Z,11.50
2019-03-15T15:21:03.175Z,11.50
2019-03-15T15:23:34.673Z,11.60
2019-03-15T15:26:03.457Z,11.50
2019-03-15T15:28:32.402Z,11.50
2019-03-15T15:31:01.475Z,11.60
2019-03-15T15:33:30.414Z,11.60
2019-03-15T15:35:59.358Z,11.60
2019-03-15T15:38:28.639Z,11.60
2019-03-15T15:40:57.843Z,11.50
2019-03-15T15:43:26.734Z,11.50
2019-03-15T15:45:55.653Z,11.50
2019-03-15T15:48:24.598Z,11.40
2019-03-15T15:50:53.795Z,11.50
2019-03-15T15:53:22.714Z,11.50
2019-03-15T15:55:51.742Z,11.40
2019-03-15T15:58:20.670Z,11.40
2019-03-15T16:00:52.602Z,11.40
2019-03-15T16:03:21.489Z,11.40
2019-03-15T16:05:50.552Z,11.50
2019-03-15T16:08:19.443Z,11.50
2019-03-15T16:10:48.301Z,11.50
2019-03-15T16:13:17.743Z,11.50
2019-03-15T16:15:46.856Z,11.50
2019-03-15T16:18:15.795Z,11.40
2019-03-15T16:20:45.087Z,11.50
2019-03-15T16:23:14.019Z,11.50
2019-03-15T16:25:42.985Z,11.60
2019-03-15T16:28:12.162Z,11.50
2019-03-15T16:30:41.091Z,11.50
2019-03-15T16:33:10.017Z,11.50
2019-03-15T16:35:38.969Z,11.60
2019-03-15T16:38:07.825Z,11.60
2019-03-15T16:40:37.121Z,11.50
2019-03-15T16:43:06.423Z,11.50
2019-03-15T16:45:35.466Z,11.50
2019-03-15T16:48:04.462Z,11.60
2019-03-15T16:50:33.481Z,11.60
2019-03-15T16:53:02.493Z,11.60
2019-03-15T16:55:31.338Z,11.60
2019-03-15T16:58:01.002Z,11.60
2019-03-15T17:00:30.087Z,11.60
2019-03-15T17:02:59.702Z,11.60
2019-03-15T17:05:29.126Z,11.60
2019-03-15T17:07:58.194Z,11.60
2019-03-15T17:10:27.231Z,11.60
2019-03-15T17:12:56.438Z,11.60
2019-03-15T17:15:25.522Z,11.60
2019-03-15T17:17:54.574Z,11.70
2019-03-15T17:20:23.809Z,11.60
2019-03-15T17:22:52.638Z,11.60
2019-03-15T17:25:21.640Z,11.60
2019-03-15T17:27:50.742Z,11.60
2019-03-15T17:30:19.843Z,11.70
2019-03-15T17:32:49.398Z,11.60
2019-03-15T17:35:18.533Z,11.50
2019-03-15T17:37:47.548Z,11.60
2019-03-15T17:40:17.030Z,11.60
2019-03-15T17:42:45.988Z,11.60
2019-03-15T17:45:15.059Z,11.60
2019-03-15T17:47:43.981Z,11.60
2019-03-15T17:50:14.401Z,11.60
2019-03-15T17:52:43.398Z,11.60
2019-03-15T17:55:12.860Z,11.60
2019-03-15T17:57:45.307Z,11.60
2019-03-15T18:00:27.729Z,11.60
2019-03-15T18:02:56.748Z,11.50
2019-03-15T18:05:25.815Z,11.50
2019-03-15T18:07:54.814Z,11.50
2019-03-15T18:10:23.835Z,11.60
2019-03-15T18:12:52.892Z,11.60
2019-03-15T18:15:21.882Z,11.60
2019-03-15T18:17:50.900Z,11.60
2019-03-15T18:20:19.900Z,11.60
2019-03-15T18:22:48.894Z,11.50
2019-03-15T18:25:17.919Z,11.50
2019-03-15T18:27:48.053Z,11.50
2019-03-15T18:30:17.413Z,11.50
2019-03-15T18:32:46.689Z,11.50
2019-03-15T18:35:15.685Z,11.50
2019-03-15T18:37:44.613Z,11.60
2019-03-15T18:40:13.732Z,11.50
2019-03-15T18:42:42.882Z,11.60
2019-03-15T18:45:12.861Z,11.50
2019-03-15T18:47:41.869Z,11.50
2019-03-15T18:50:14.566Z,11.50
2019-03-15T18:52:43.948Z,11.50
2019-03-15T18:55:12.964Z,11.50
2019-03-15T18:57:42.530Z,11.50
2019-03-15T19:00:14.600Z,11.50
2019-03-15T19:02:43.539Z,11.50
2019-03-15T19:05:12.464Z,11.50
2019-03-15T19:07:41.488Z,11.50
2019-03-15T19:10:10.820Z,11.50
2019-03-15T19:12:39.742Z,11.50
2019-03-15T19:15:10.147Z,11.50
2019-03-15T19:17:39.533Z,11.50
2019-03-15T19:20:09.594Z,11.50
2019-03-15T19:22:38.606Z,11.60
2019-03-15T19:25:08.208Z,11.60
2019-03-15T19:27:37.211Z,11.50
2019-03-15T19:30:06.966Z,11.60
2019-03-15T19:32:35.920Z,11.60
2019-03-15T19:35:05.155Z,11.60
2019-03-15T19:37:34.177Z,11.60
2019-03-15T19:40:03.194Z,11.60
2019-03-15T19:42:32.126Z,11.50
2019-03-15T19:45:01.039Z,11.50
2019-03-15T19:47:29.905Z,11.60
2019-03-15T19:49:58.834Z,11.70
2019-03-15T19:52:27.951Z,11.70
2019-03-15T19:55:00.806Z,11.70
2019-03-15T19:57:27.453Z,11.70
2019-03-15T20:00:07.038Z,11.70
2019-03-15T20:02:27.294Z,11.70
2019-03-15T20:04:56.148Z,11.70
2019-03-15T20:07:25.111Z,11.70
2019-03-15T20:09:54.407Z,11.60
2019-03-15T20:12:23.819Z,11.60
2019-03-15T20:14:53.123Z,11.60
2019-03-15T20:17:22.202Z,11.70
2019-03-15T20:19:51.198Z,11.70
2019-03-15T20:22:21.271Z,11.60
2019-03-15T20:24:50.368Z,11.60
2019-03-15T20:27:19.476Z,11.60
2019-03-15T20:29:48.398Z,11.60
2019-03-15T20:32:17.291Z,11.60
2019-03-15T20:34:46.310Z,11.60
2019-03-15T20:37:15.296Z,11.60
2019-03-15T20:39:44.326Z,11.60
2019-03-15T20:42:13.257Z,11.60
2019-03-15T20:44:42.177Z,11.60
2019-03-15T20:47:11.130Z,11.60
2019-03-15T20:49:39.978Z,11.60
2019-03-15T20:52:08.985Z,11.70
2019-03-15T20:54:37.923Z,11.60
2019-03-15T20:57:06.924Z,11.60
2019-03-15T20:59:35.851Z,11.60
2019-03-15T21:02:04.906Z,11.60
2019-03-15T21:04:33.753Z,11.70
2019-03-15T21:07:02.607Z,11.60
2019-03-15T21:09:31.486Z,11.60
2019-03-15T21:12:01.483Z,11.60
2019-03-15T21:14:30.386Z,11.70
2019-03-15T21:16:59.634Z,11.60
2019-03-15T21:19:28.559Z,11.60
2019-03-15T21:21:57.401Z,11.60
2019-03-15T21:24:26.267Z,11.60
2019-03-15T21:26:55.189Z,11.60
2019-03-15T21:29:24.054Z,11.50
2019-03-15T21:31:53.007Z,11.50
2019-03-15T21:34:21.859Z,11.50
2019-03-15T21:36:51.088Z,11.50
2019-03-15T21:39:20.005Z,11.50
2019-03-15T21:41:48.929Z,11.50
2019-03-15T21:44:17.954Z,11.60
2019-03-15T21:46:48.097Z,11.60
2019-03-15T21:49:17.350Z,11.60
2019-03-15T21:51:46.556Z,11.50
2019-03-15T21:54:15.645Z,11.50
2019-03-15T21:56:44.490Z,11.60
2019-03-15T21:59:13.338Z,11.50
2019-03-15T22:01:42.217Z,11.40
2019-03-15T22:04:11.170Z,11.40
2019-03-15T22:06:40.157Z,11.40
2019-03-15T22:09:09.470Z,11.40
2019-03-15T22:11:38.397Z,11.40
2019-03-15T22:14:07.252Z,11.40
2019-03-15T22:16:36.198Z,11.40
2019-03-15T22:19:05.467Z,11.30
2019-03-15T22:21:34.309Z,11.30
2019-03-15T22:24:03.643Z,11.30
2019-03-15T22:26:32.955Z,11.40
2019-03-15T22:29:02.048Z,11.30
2019-03-15T22:31:30.995Z,11.30
2019-03-15T22:33:59.851Z,11.30
2019-03-15T22:36:29.117Z,11.30
2019-03-15T22:38:57.985Z,11.30
2019-03-15T22:41:27.214Z,11.30
2019-03-15T22:43:56.418Z,11.30
2019-03-15T22:46:25.553Z,11.30
2019-03-15T22:48:54.406Z,11.30
2019-03-15T22:51:23.326Z,11.30
2019-03-15T22:53:52.214Z,11.30
2019-03-15T22:56:21.135Z,11.30
2019-03-15T22:58:50.072Z,11.30
2019-03-15T23:01:29.606Z,11.20
2019-03-15T23:03:49.642Z,11.20
2019-03-15T23:06:18.579Z,11.30
2019-03-15T23:08:47.586Z,11.20
2019-03-15T23:11:16.709Z,11.20
2019-03-15T23:13:45.581Z,11.20
2019-03-15T23:16:14.529Z,11.20
2019-03-15T23:18:43.393Z,11.20
2019-03-15T23:21:12.333Z,11.30
2019-03-15T23:23:41.194Z,11.30
2019-03-15T23:26:10.311Z,11.20
2019-03-15T23:28:39.615Z,11.20
2019-03-15T23:31:08.578Z,11.20
2019-03-15T23:33:37.731Z,11.20
2019-03-15T23:36:06.580Z,11.30
2019-03-15T23:38:35.793Z,11.20
2019-03-15T23:41:04.782Z,11.30
2019-03-15T23:43:33.710Z,11.20
2019-03-15T23:46:02.763Z,11.20
2019-03-15T23:48:31.755Z,11.20
2019-03-15T23:51:00.874Z,11.20
2019-03-15T23:53:29.801Z,11.20
2019-03-15T23:55:58.698Z,11.20
2019-03-15T23:58:27.694Z,11.20
